Time;durP1;ratioP1;P1;durP2;ratioP2;P2;SDS_P1;SDS_P2;PMS_P1;PMS_P2;Temp;Humidity;BMP_temperature;BMP_pressure;BME280_temperature;BME280_humidity;BME280_pressure;Samples;Min_cycle;Max_cycle;Signal;HPM_P1;HPM_P2
2021/06/24 00:02:18;;;;;;;7.25;5.65;;;;;;;15.36;91.84;101163.94;3593880;39;20100;-44
2021/06/24 00:04:45;;;;;;;8.73;6.32;;;;;;;15.08;92.90;101154.94;3593822;39;20066;-46
2021/06/24 00:07:13;;;;;;;8.18;6.20;;;;;;;14.96;94.08;101161.63;3593589;39;20437;-50
2021/06/24 00:09:40;;;;;;;6.95;5.45;;;;;;;15.01;93.87;101156.53;3593842;39;20095;-50
2021/06/24 00:12:07;;;;;;;10.23;6.43;;;;;;;15.02;94.12;101151.41;3593755;39;20127;-44
2021/06/24 00:14:34;;;;;;;8.07;6.57;;;;;;;14.93;95.24;101152.97;3593792;39;20092;-44
2021/06/24 00:17:02;;;;;;;9.07;6.43;;;;;;;15.02;95.10;101150.53;3593826;39;20100;-46
2021/06/24 00:19:29;;;;;;;7.57;6.55;;;;;;;15.15;94.72;101149.00;3594250;39;20064;-44
2021/06/24 00:21:56;;;;;;;8.73;6.50;;;;;;;15.01;94.80;101159.09;3594330;39;20056;-47
2021/06/24 00:24:23;;;;;;;8.77;6.75;;;;;;;15.24;94.93;101154.28;3583926;40;20084;-44
2021/06/24 00:26:50;;;;;;;9.43;6.88;;;;;;;15.11;95.13;101162.69;3583548;40;20092;-48
2021/06/24 00:29:17;;;;;;;9.80;6.55;;;;;;;15.17;95.35;101165.38;3583668;40;20043;-46
2021/06/24 00:31:44;;;;;;;7.72;6.97;;;;;;;15.06;95.22;101167.78;3583898;40;20162;-52
2021/06/24 00:34:11;;;;;;;10.23;7.03;;;;;;;15.29;93.52;101165.53;3583847;40;20592;-44
2021/06/24 00:36:38;;;;;;;10.82;7.63;;;;;;;14.83;96.18;101166.56;3583658;40;20071;-50
2021/06/24 00:39:05;;;;;;;10.50;7.60;;;;;;;14.83;97.47;101154.53;3583316;40;20064;-51
2021/06/24 00:41:32;;;;;;;9.98;7.03;;;;;;;14.84;96.21;101148.56;3583606;40;20107;-46
2021/06/24 00:43:59;;;;;;;7.90;6.80;;;;;;;14.75;96.65;101154.44;3583649;40;20120;-47
2021/06/24 00:46:26;;;;;;;8.65;7.05;;;;;;;14.84;95.69;101145.13;3583984;40;20080;-50
2021/06/24 00:48:58;;;;;;;7.65;6.85;;;;;;;14.99;95.79;101165.97;3583512;40;20052;-46
2021/06/24 00:51:25;;;;;;;13.05;7.30;;;;;;;14.98;94.57;101157.38;3585757;40;20076;-49
2021/06/24 00:53:52;;;;;;;7.38;6.65;;;;;;;15.48;93.29;101170.13;3583573;40;20045;-52
2021/06/24 00:56:31;;;;;;;9.10;6.63;;;;;;;15.12;95.54;101167.91;3583487;40;20210;-44
2021/06/24 00:59:02;;;;;;;8.77;7.35;;;;;;;15.39;92.27;101175.16;3593514;39;20076;-50
2021/06/24 01:01:31;;;;;;;8.40;6.93;;;;;;;15.40;92.41;101189.78;3593445;39;20469;-46
2021/06/24 01:03:59;;;;;;;9.18;7.40;;;;;;;15.19;94.10;101197.22;3593537;39;20684;-51
2021/06/24 01:06:26;;;;;;;10.20;7.88;;;;;;;14.86;95.42;101203.59;3594058;39;20320;-44
2021/06/24 01:08:53;;;;;;;9.73;7.68;;;;;;;14.73;96.26;101199.94;3593505;39;20329;-50
2021/06/24 01:11:20;;;;;;;9.98;8.32;;;;;;;14.48;98.13;101215.81;3593842;39;20735;-45
2021/06/24 01:13:47;;;;;;;11.20;8.35;;;;;;;14.35;99.63;101206.97;3593651;39;20060;-47
2021/06/24 01:16:16;;;;;;;10.35;8.05;;;;;;;14.42;98.82;101218.22;3593462;39;20064;-46
2021/06/24 01:18:43;;;;;;;12.43;8.48;;;;;;;14.31;99.56;101210.31;3593374;39;20076;-52
2021/06/24 01:21:10;;;;;;;10.88;8.48;;;;;;;14.31;100.00;101217.19;3593682;39;20557;-51
2021/06/24 01:23:42;;;;;;;12.68;8.45;;;;;;;14.29;99.97;101218.88;3593382;39;20084;-52
2021/06/24 01:26:09;;;;;;;10.45;8.20;;;;;;;14.23;100.00;101206.72;3593134;39;20095;-51
2021/06/24 01:28:37;;;;;;;8.95;7.95;;;;;;;14.46;100.00;101214.88;3593227;39;20435;-48
2021/06/24 01:31:05;;;;;;;11.05;7.88;;;;;;;14.35;100.00;101214.69;3593322;39;20119;-46
2021/06/24 01:33:32;;;;;;;12.70;8.27;;;;;;;14.57;99.07;101221.16;3593539;39;20079;-45
2021/06/24 01:36:02;;;;;;;9.38;7.18;;;;;;;15.10;96.99;101222.88;3593319;39;20147;-45
2021/06/24 01:38:31;;;;;;;8.95;7.47;;;;;;;14.87;96.31;101222.50;3593029;39;20092;-46
2021/06/24 01:41:03;;;;;;;12.80;7.60;;;;;;;14.98;96.21;101214.09;3593125;39;20100;-49
2021/06/24 01:43:31;;;;;;;8.27;7.00;;;;;;;14.65;98.47;101204.13;3593314;39;20050;-48
2021/06/24 01:45:59;;;;;;;11.25;7.50;;;;;;;14.54;99.46;101200.47;3593360;39;20083;-46
2021/06/24 01:48:28;;;;;;;10.27;7.43;;;;;;;14.67;99.47;101197.25;3593385;39;20056;-48
2021/06/24 01:50:58;;;;;;;8.80;7.85;;;;;;;14.60;99.84;101186.81;3592868;39;20113;-49
2021/06/24 01:53:26;;;;;;;13.13;8.18;;;;;;;14.59;99.65;101187.66;3593316;39;20072;-54
2021/06/24 01:55:53;;;;;;;10.52;8.05;;;;;;;14.79;98.85;101188.88;3592955;39;20088;-45
2021/06/24 01:58:23;;;;;;;10.05;7.50;;;;;;;14.63;99.17;101179.13;3593125;39;20084;-49
2021/06/24 02:00:52;;;;;;;8.18;7.30;;;;;;;14.52;100.00;101177.25;3593172;39;20067;-45
2021/06/24 02:03:20;;;;;;;9.25;7.50;;;;;;;14.57;100.00;101168.72;3593328;39;20048;-50
2021/06/24 02:05:50;;;;;;;12.50;7.65;;;;;;;14.51;100.00;101164.31;3593182;39;20040;-50
2021/06/24 02:08:23;;;;;;;12.07;7.93;;;;;;;14.48;100.00;101148.81;3592920;39;20076;-55
2021/06/24 02:10:51;;;;;;;11.13;7.45;;;;;;;14.50;100.00;101142.84;3593154;39;20348;-45
2021/06/24 02:13:18;;;;;;;12.90;7.93;;;;;;;14.67;100.00;101137.97;3593347;39;20331;-44
2021/06/24 02:15:45;;;;;;;9.68;7.57;;;;;;;14.63;100.00;101128.44;3593134;39;20123;-48
2021/06/24 02:18:13;;;;;;;10.10;7.82;;;;;;;14.68;99.90;101113.06;3592957;39;20099;-46
2021/06/24 02:20:41;;;;;;;8.75;7.30;;;;;;;14.55;100.00;101105.97;3593134;39;20071;-50
2021/06/24 02:23:08;;;;;;;12.32;7.50;;;;;;;14.66;100.00;101096.72;3593123;39;20138;-46
2021/06/24 02:25:36;;;;;;;9.45;7.50;;;;;;;14.57;100.00;101094.00;3593152;39;20493;-46
2021/06/24 02:28:05;;;;;;;13.77;8.35;;;;;;;14.56;100.00;101087.06;3593032;39;20052;-46
2021/06/24 02:30:32;;;;;;;10.98;7.78;;;;;;;14.49;100.00;101081.84;3593120;39;20056;-51
2021/06/24 02:32:59;;;;;;;10.10;8.15;;;;;;;14.63;100.00;101086.34;3593253;39;20068;-51
2021/06/24 02:35:28;;;;;;;10.60;8.10;;;;;;;14.80;99.41;101089.19;3593259;39;20426;-44
2021/06/24 02:37:55;;;;;;;9.40;7.25;;;;;;;14.62;99.51;101082.03;3593159;39;20064;-47
2021/06/24 02:40:22;;;;;;;11.82;7.47;;;;;;;14.56;100.00;101087.97;3593046;39;20051;-51
2021/06/24 02:42:50;;;;;;;10.73;7.20;;;;;;;14.50;100.00;101083.56;3592648;39;20098;-51
2021/06/24 02:45:17;;;;;;;10.95;7.72;;;;;;;14.79;99.33;101070.28;3592400;39;20736;-48
2021/06/24 02:47:44;;;;;;;8.45;7.57;;;;;;;14.68;98.90;101074.38;3592517;39;20095;-58
2021/06/24 02:50:12;;;;;;;10.43;8.15;;;;;;;14.58;100.00;101070.81;3592533;39;20043;-52
2021/06/24 02:52:39;;;;;;;9.68;7.85;;;;;;;14.59;99.92;101075.13;3592970;39;20478;-44
2021/06/24 02:55:07;;;;;;;8.45;7.00;;;;;;;14.93;97.73;101083.34;3592850;39;20715;-50
2021/06/24 02:57:34;;;;;;;9.38;7.18;;;;;;;14.97;97.36;101072.22;3593083;39;20080;-47
2021/06/24 03:00:04;;;;;;;10.38;7.30;;;;;;;15.06;96.41;101079.22;3593147;39;20071;-44
2021/06/24 03:02:31;;;;;;;12.30;7.57;;;;;;;14.84;97.27;101076.38;3593285;39;20080;-46
2021/06/24 03:04:58;;;;;;;10.88;7.13;;;;;;;14.85;97.28;101083.25;3594439;39;20080;-49
2021/06/24 03:07:25;;;;;;;9.25;6.80;;;;;;;14.97;97.55;101072.22;3594036;39;20052;-44
2021/06/24 03:09:52;;;;;;;9.93;7.88;;;;;;;14.92;97.82;101073.88;3594187;39;20114;-47
2021/06/24 03:12:19;;;;;;;12.23;7.60;;;;;;;15.11;96.90;101075.84;3593993;39;20064;-47
2021/06/24 03:14:46;;;;;;;10.32;7.32;;;;;;;14.81;98.35;101063.41;3594520;39;20067;-51
2021/06/24 03:17:13;;;;;;;9.35;6.97;;;;;;;14.95;97.17;101053.28;3594064;39;20056;-45
2021/06/24 03:19:40;;;;;;;12.25;6.82;;;;;;;14.76;97.74;101057.31;3594281;39;20084;-46
2021/06/24 03:22:07;;;;;;;9.05;7.35;;;;;;;14.91;96.78;101054.97;3594304;39;20099;-45
2021/06/24 03:24:35;;;;;;;9.30;7.15;;;;;;;15.25;94.87;101063.13;3594306;39;20056;-49
2021/06/24 03:27:02;;;;;;;7.10;6.25;;;;;;;15.26;94.78;101060.59;3593993;39;20116;-47
2021/06/24 03:29:29;;;;;;;13.13;6.97;;;;;;;15.06;95.50;101063.75;3594098;39;20044;-48
2021/06/24 03:31:57;;;;;;;11.38;6.30;;;;;;;15.30;94.37;101056.34;3593871;39;20044;-47
2021/06/24 03:34:24;;;;;;;9.73;6.40;;;;;;;15.48;93.91;101061.72;3593688;39;20050;-48
2021/06/24 03:36:52;;;;;;;8.38;6.55;;;;;;;15.21;94.22;101071.72;3593584;39;20095;-52
2021/06/24 03:39:18;;;;;;;9.48;6.57;;;;;;;15.42;93.09;101066.78;3593833;39;20047;-47
2021/06/24 03:41:46;;;;;;;10.48;6.55;;;;;;;14.95;96.12;101063.59;3593994;39;20092;-51
2021/06/24 03:44:16;;;;;;;8.38;6.45;;;;;;;15.06;96.18;101064.59;3593347;39;20078;-49
2021/06/24 03:46:53;;;;;;;9.80;7.07;;;;;;;14.85;97.27;101060.03;3593287;39;20169;-53
2021/06/24 03:49:20;;;;;;;7.57;6.05;;;;;;;15.10;96.08;101050.03;3594046;39;20333;-47
2021/06/24 03:51:48;;;;;;;10.65;6.50;;;;;;;15.11;96.11;101047.47;3587824;39;20063;-49
2021/06/24 03:54:15;;;;;;;7.43;5.85;;;;;;;15.48;94.11;101055.66;3591069;39;20052;-48
2021/06/24 03:56:42;;;;;;;8.57;6.30;;;;;;;15.57;93.24;101055.75;3590242;39;20060;-48
2021/06/24 03:59:09;;;;;;;7.20;5.85;;;;;;;15.25;94.39;101053.72;3593803;39;20092;-49
2021/06/24 04:01:42;;;;;;;10.80;6.18;;;;;;;15.66;92.34;101062.78;3593754;39;20062;-52
2021/06/24 04:04:12;;;;;;;9.38;6.40;;;;;;;15.57;92.31;101066.09;3593170;39;20068;-49
2021/06/24 04:06:39;;;;;;;9.73;5.68;;;;;;;15.86;90.63;101074.22;3593009;39;20059;-48
2021/06/24 04:09:09;;;;;;;9.75;6.50;;;;;;;15.85;91.02;101080.19;3592578;39;20084;-51
2021/06/24 04:11:36;;;;;;;7.32;5.72;;;;;;;15.75;91.05;101083.53;3593239;39;20058;-49
2021/06/24 04:14:03;;;;;;;10.05;5.82;;;;;;;15.46;92.17;101083.19;3593279;39;20398;-46
2021/06/24 04:16:32;;;;;;;9.85;6.03;;;;;;;15.36;93.01;101089.94;3598909;39;20048;-51
2021/06/24 04:19:00;;;;;;;12.30;6.18;;;;;;;15.64;93.28;101091.19;3596737;39;20060;-50
2021/06/24 04:21:27;;;;;;;9.13;5.95;;;;;;;15.98;92.21;101086.34;3594438;39;20123;-48
2021/06/24 04:23:54;;;;;;;14.18;7.03;;;;;;;15.47;96.17;101083.19;3593902;39;20112;-47
2021/06/24 04:26:22;;;;;;;10.75;6.80;;;;;;;15.36;98.70;101084.78;3593773;39;20072;-49
2021/06/24 04:28:53;;;;;;;11.43;6.63;;;;;;;15.40;99.12;101080.53;3593595;39;20173;-47
2021/06/24 04:31:20;;;;;;;10.23;6.75;;;;;;;15.36;100.00;101081.34;3594057;39;20353;-48
2021/06/24 04:33:47;;;;;;;9.57;7.07;;;;;;;15.32;100.00;101077.00;3593923;39;20056;-47
2021/06/24 04:36:14;;;;;;;16.20;7.10;;;;;;;15.45;100.00;101071.13;3593754;39;20066;-49
2021/06/24 04:38:41;;;;;;;12.52;7.38;;;;;;;15.62;100.00;101068.72;3593769;39;20052;-48
2021/06/24 04:41:10;;;;;;;14.88;7.20;;;;;;;15.39;100.00;101060.72;3594085;39;20111;-47
2021/06/24 04:43:45;;;;;;;10.53;7.47;;;;;;;15.49;99.97;101067.75;3594021;39;20052;-46
2021/06/24 04:46:13;;;;;;;11.05;7.28;;;;;;;15.46;99.93;101067.69;3593807;39;20417;-50
2021/06/24 04:48:41;;;;;;;12.57;7.30;;;;;;;15.49;99.11;101070.31;3592980;39;20051;-50
2021/06/24 04:51:09;;;;;;;10.70;7.28;;;;;;;15.86;95.91;101074.22;3593988;39;20062;-49
2021/06/24 04:53:36;;;;;;;13.00;7.60;;;;;;;15.94;95.08;101079.44;3592655;39;20158;-50
2021/06/24 04:56:04;;;;;;;10.25;6.80;;;;;;;16.01;95.74;101076.06;3591366;39;20041;-47
2021/06/24 04:58:31;;;;;;;13.15;7.38;;;;;;;16.16;94.76;101072.75;3592973;39;20091;-52
2021/06/24 05:00:58;;;;;;;10.18;6.82;;;;;;;15.81;97.22;101073.28;3593524;39;20052;-50
2021/06/24 05:03:25;;;;;;;12.95;8.00;;;;;;;15.52;100.00;101076.38;3593897;39;20071;-53
2021/06/24 05:05:53;;;;;;;14.52;9.13;;;;;;;15.25;100.00;101087.25;3600427;39;20106;-52
2021/06/24 05:08:23;;;;;;;17.85;9.35;;;;;;;15.44;100.00;101087.47;3598372;39;20104;-53
2021/06/24 05:10:51;;;;;;;17.55;9.50;;;;;;;15.31;100.00;101086.44;3593384;39;20112;-54
2021/06/24 05:13:18;;;;;;;12.77;9.88;;;;;;;15.47;100.00;101095.22;3593514;39;20055;-55
2021/06/24 05:15:45;;;;;;;14.45;9.32;;;;;;;15.76;100.00;101104.22;3593107;39;20051;-53
2021/06/24 05:18:14;;;;;;;17.55;9.95;;;;;;;15.50;100.00;101103.88;3592970;39;20033;-54
2021/06/24 05:20:44;;;;;;;18.02;10.10;;;;;;;15.84;100.00;101111.19;3593321;39;20060;-54
2021/06/24 05:23:15;;;;;;;17.67;10.35;;;;;;;15.60;100.00;101112.59;3593414;39;20060;-52
2021/06/24 05:25:44;;;;;;;24.60;12.30;;;;;;;15.27;100.00;101115.63;3593554;39;20088;-53
2021/06/24 05:28:11;;;;;;;19.70;12.20;;;;;;;15.19;100.00;101117.25;3593192;39;20068;-51
2021/06/24 05:30:45;;;;;;;25.75;11.95;;;;;;;15.48;100.00;101118.50;3593258;39;20044;-53
2021/06/24 05:33:14;;;;;;;23.52;12.20;;;;;;;15.83;100.00;101107.75;3593166;39;20078;-49
2021/06/24 05:35:41;;;;;;;21.67;11.90;;;;;;;15.77;100.00;101115.44;3593081;39;20466;-50
2021/06/24 05:38:11;;;;;;;17.38;10.35;;;;;;;15.41;100.00;101110.66;3592227;39;20562;-54
2021/06/24 05:40:40;;;;;;;16.80;11.30;;;;;;;15.53;100.00;101118.56;3593365;39;20145;-52
2021/06/24 05:43:07;;;;;;;16.35;11.60;;;;;;;15.72;100.00;101120.53;3592240;39;20048;-53
2021/06/24 05:45:34;;;;;;;18.30;11.27;;;;;;;15.90;100.00;101126.72;3593050;39;20073;-52
2021/06/24 05:48:03;;;;;;;15.70;10.77;;;;;;;16.30;100.00;101126.28;3592968;39;20132;-53
2021/06/24 05:50:30;;;;;;;18.35;10.30;;;;;;;16.51;100.00;101122.19;3593214;39;20096;-53
2021/06/24 05:52:57;;;;;;;15.30;10.82;;;;;;;16.17;100.00;101127.03;3592983;39;20056;-51
2021/06/24 05:58:13;;;;;;;16.73;11.20;;;;;;;16.33;100.00;101127.19;3589094;39;20313;-53
2021/06/24 06:00:42;;;;;;;18.58;11.02;;;;;;;16.32;100.00;101126.31;3590944;39;20071;-54
2021/06/24 06:03:10;;;;;;;16.10;11.15;;;;;;;16.15;100.00;101122.72;3592696;39;20322;-53
2021/06/24 06:05:38;;;;;;;15.23;10.55;;;;;;;16.65;100.00;101123.16;3591194;39;20147;-52
2021/06/24 06:08:08;;;;;;;15.43;10.63;;;;;;;16.74;100.00;101117.22;3590855;39;20398;-55
2021/06/24 06:10:37;;;;;;;14.82;10.73;;;;;;;16.88;100.00;101117.31;3593334;39;20080;-51
2021/06/24 06:13:06;;;;;;;13.88;10.45;;;;;;;16.85;100.00;101118.16;3592823;39;20056;-50
2021/06/24 06:15:34;;;;;;;16.23;10.60;;;;;;;17.03;100.00;101125.16;3593307;39;20044;-53
2021/06/24 06:18:08;;;;;;;16.60;9.95;;;;;;;17.51;98.17;101127.13;3592925;39;20424;-51
2021/06/24 06:20:36;;;;;;;15.05;9.50;;;;;;;17.20;98.80;101128.72;3593065;39;20044;-51
2021/06/24 06:23:03;;;;;;;14.38;9.20;;;;;;;17.19;97.80;101137.31;3593008;39;20047;-51
2021/06/24 06:25:33;;;;;;;16.75;10.25;;;;;;;17.46;98.47;101136.59;3593008;39;20117;-50
2021/06/24 06:28:00;;;;;;;12.07;9.70;;;;;;;17.63;98.94;101135.81;3592804;39;20095;-50
2021/06/24 06:30:27;;;;;;;14.35;8.80;;;;;;;17.68;95.82;101131.53;3591780;39;20352;-53
2021/06/24 06:32:55;;;;;;;17.73;9.95;;;;;;;17.96;97.47;101135.94;3592355;39;20055;-50
2021/06/24 06:35:22;;;;;;;16.40;10.15;;;;;;;18.18;94.30;101126.50;3589904;39;20104;-53
2021/06/24 06:37:50;;;;;;;12.23;9.82;;;;;;;17.85;94.90;101139.41;3592839;39;20144;-52
2021/06/24 06:40:17;;;;;;;17.23;10.68;;;;;;;17.59;98.11;101137.53;3592236;39;20036;-50
2021/06/24 06:42:44;;;;;;;16.15;8.82;;;;;;;18.01;95.85;101138.56;3593653;39;20084;-50
2021/06/24 06:45:13;;;;;;;14.52;9.27;;;;;;;17.67;96.23;101135.84;3593321;39;21277;-51
2021/06/24 06:47:40;;;;;;;19.13;9.52;;;;;;;18.08;95.12;101144.63;3593067;39;20048;-49
2021/06/24 06:50:07;;;;;;;15.65;8.80;;;;;;;18.11;95.54;101137.69;3593255;39;20076;-49
2021/06/24 06:52:35;;;;;;;14.30;9.40;;;;;;;17.93;97.72;101137.66;3594262;39;20066;-52
2021/06/24 06:55:02;;;;;;;13.77;8.90;;;;;;;18.39;92.34;101133.41;3594312;39;20168;-51
2021/06/24 06:57:29;;;;;;;14.48;9.43;;;;;;;18.07;96.08;101125.59;3593922;39;20041;-51
2021/06/24 06:59:56;;;;;;;10.80;9.10;;;;;;;18.07;97.13;101123.00;3594340;39;20456;-52
2021/06/24 07:02:23;;;;;;;13.07;8.77;;;;;;;17.68;96.68;101134.13;3594447;39;20700;-53
2021/06/24 07:04:50;;;;;;;13.85;8.85;;;;;;;18.07;95.66;101133.38;3594158;39;20421;-49
2021/06/24 07:07:18;;;;;;;13.13;9.93;;;;;;;17.92;97.40;101133.34;3594178;39;20047;-49
2021/06/24 07:09:54;;;;;;;15.43;9.43;;;;;;;17.92;94.43;101133.34;3593736;39;20060;-51
2021/06/24 07:12:24;;;;;;;12.30;10.13;;;;;;;17.69;99.40;101122.88;3590075;39;20089;-52
2021/06/24 07:14:54;;;;;;;13.55;9.15;;;;;;;18.12;98.40;101123.00;3593926;39;20055;-48
2021/06/24 07:17:21;;;;;;;13.82;10.43;;;;;;;17.83;99.18;101126.41;3591079;39;20206;-49
2021/06/24 07:19:49;;;;;;;16.40;9.85;;;;;;;17.89;99.41;101128.19;3593181;39;20052;-50
2021/06/24 07:22:16;;;;;;;16.35;10.25;;;;;;;18.03;99.38;101116.97;3593719;39;20056;-50
2021/06/24 07:24:43;;;;;;;18.83;9.52;;;;;;;18.65;95.07;101124.78;3594105;39;20417;-52
2021/06/24 07:27:11;;;;;;;12.93;9.95;;;;;;;18.65;95.81;101125.66;3592348;39;20392;-51
2021/06/24 07:29:38;;;;;;;15.90;11.13;;;;;;;18.67;91.46;101117.84;3593255;39;20090;-52
2021/06/24 07:32:05;;;;;;;12.40;9.43;;;;;;;18.74;90.31;101114.44;3592579;39;20043;-47
2021/06/24 07:34:34;;;;;;;15.25;10.25;;;;;;;18.79;91.76;101121.34;3590927;39;20462;-50
2021/06/24 07:37:07;;;;;;;16.00;8.82;;;;;;;19.48;86.97;101108.19;3593287;39;20050;-53
2021/06/24 07:39:37;;;;;;;16.98;10.10;;;;;;;19.31;88.06;101115.16;3592572;39;20052;-51
2021/06/24 07:42:04;;;;;;;13.23;9.07;;;;;;;18.97;87.17;101110.06;3594119;39;20063;-52
2021/06/24 07:44:31;;;;;;;14.95;9.88;;;;;;;19.05;88.46;101108.34;3592421;39;20071;-51
2021/06/24 07:46:59;;;;;;;15.68;9.68;;;;;;;18.68;91.22;101111.81;3593200;39;20055;-49
2021/06/24 07:49:26;;;;;;;13.73;9.05;;;;;;;19.04;89.32;101113.50;3593520;39;20059;-49
2021/06/24 07:51:53;;;;;;;12.70;9.10;;;;;;;18.58;90.64;101109.25;3594152;39;20060;-51
2021/06/24 07:54:20;;;;;;;14.43;8.82;;;;;;;19.05;90.81;101107.47;3594131;39;20080;-54
2021/06/24 07:56:50;;;;;;;16.35;8.75;;;;;;;19.73;85.78;101102.88;3594026;39;20061;-51
2021/06/24 07:59:17;;;;;;;14.60;8.60;;;;;;;19.79;82.05;101102.88;3593931;39;20056;-53
2021/06/24 08:01:44;;;;;;;11.75;7.85;;;;;;;19.84;83.83;101104.56;3594176;39;20059;-53
2021/06/24 08:04:12;;;;;;;11.20;8.50;;;;;;;19.74;84.62;101112.44;3594032;39;20056;-50
2021/06/24 08:06:39;;;;;;;10.70;7.88;;;;;;;19.62;82.70;101118.53;3593939;39;20157;-49
2021/06/24 08:09:09;;;;;;;13.60;8.10;;;;;;;19.30;89.03;101113.44;3592491;39;20096;-50
2021/06/24 08:11:37;;;;;;;13.50;7.05;;;;;;;19.71;81.35;101110.69;3594045;39;20063;-51
2021/06/24 08:14:04;;;;;;;10.57;6.18;;;;;;;19.84;81.56;101108.91;3594006;39;20058;-49
2021/06/24 08:16:32;;;;;;;11.07;7.07;;;;;;;19.56;85.73;101105.56;3593949;39;20400;-50
2021/06/24 08:18:59;;;;;;;10.63;6.75;;;;;;;19.57;83.12;101110.72;3594259;39;20419;-51
2021/06/24 08:21:26;;;;;;;12.73;7.93;;;;;;;19.55;85.37;101111.59;3594040;39;20100;-53
2021/06/24 08:23:53;;;;;;;15.88;7.10;;;;;;;19.28;85.32;101115.19;3594100;39;20115;-54
2021/06/24 08:26:20;;;;;;;9.43;6.60;;;;;;;19.79;81.27;101124.53;3593907;39;20054;-49
2021/06/24 08:28:48;;;;;;;14.85;7.53;;;;;;;19.53;84.95;101122.00;3593846;39;20095;-49
2021/06/24 08:31:16;;;;;;;11.70;7.45;;;;;;;19.80;84.15;101115.00;3593936;39;20087;-53
2021/06/24 08:33:43;;;;;;;10.80;7.25;;;;;;;19.42;84.28;101117.75;3593824;39;20079;-49
2021/06/24 08:36:10;;;;;;;12.65;6.97;;;;;;;19.88;84.80;101118.41;3593615;39;20156;-53
2021/06/24 08:38:37;;;;;;;12.07;7.07;;;;;;;20.21;81.87;101119.94;3593845;39;20067;-48
2021/06/24 08:41:04;;;;;;;10.02;6.90;;;;;;;19.48;83.92;101121.16;3593897;39;20113;-53
2021/06/24 08:43:32;;;;;;;11.90;7.22;;;;;;;19.59;84.28;101118.50;3594072;39;20087;-50
2021/06/24 08:46:03;;;;;;;11.23;6.72;;;;;;;19.51;84.42;101113.38;3593860;39;20112;-51
2021/06/24 08:48:36;;;;;;;11.23;7.05;;;;;;;19.52;84.21;101115.09;3593672;39;20346;-51
2021/06/24 08:51:05;;;;;;;11.00;7.07;;;;;;;19.67;84.30;101116.78;3593577;39;20024;-51
2021/06/24 08:53:33;;;;;;;9.80;7.18;;;;;;;19.40;83.89;101115.13;3593809;39;20059;-52
2021/06/24 08:56:00;;;;;;;15.02;7.80;;;;;;;19.48;84.26;101120.31;3594189;39;20060;-51
2021/06/24 08:58:27;;;;;;;12.73;7.40;;;;;;;20.14;83.48;101117.38;3593940;39;20076;-49
2021/06/24 09:00:55;;;;;;;13.07;7.88;;;;;;;20.57;80.72;101124.00;3593600;39;20060;-53
2021/06/24 09:03:31;;;;;;;12.50;7.55;;;;;;;20.31;80.38;101126.78;3590726;39;20079;-51
2021/06/24 09:06:01;;;;;;;14.32;7.65;;;;;;;20.34;81.04;101125.91;3593773;39;20542;-49
2021/06/24 09:08:52;;;;;;;13.68;7.93;;;;;;;19.54;84.09;101123.72;3593742;39;20069;-50
2021/06/24 09:11:24;;;;;;;11.57;7.35;;;;;;;20.14;83.26;101125.16;3593443;39;20066;-50
2021/06/24 09:14:05;;;;;;;14.25;8.70;;;;;;;19.97;84.30;101120.97;3593648;39;20052;-48
2021/06/24 09:16:36;;;;;;;16.75;9.35;;;;;;;20.56;81.53;101129.22;3591388;39;20050;-51
2021/06/24 09:19:18;;;;;;;11.57;8.63;;;;;;;20.70;79.95;101124.75;3593368;39;20432;-49
2021/06/24 09:21:54;;;;;;;13.65;8.63;;;;;;;20.33;80.70;101131.97;3593397;39;20401;-51
2021/06/24 09:24:40;;;;;;;;;;;;;;;19.60;83.09;101128.09;3591184;39;20290;-50
2021/06/24 09:27:30;;;;;;;13.27;8.68;;;;;;;19.99;82.21;101129.59;3592450;39;19932;-48
2021/06/24 09:30:20;;;;;;;13.48;8.77;;;;;;;19.71;84.94;101134.09;3593962;39;20056;-53
2021/06/24 09:32:47;;;;;;;11.13;7.82;;;;;;;20.51;80.92;101138.81;3593414;39;20311;-53
2021/06/24 09:35:30;;;;;;;11.90;7.90;;;;;;;20.62;81.31;101138.72;3593772;39;20317;-48
2021/06/24 09:38:07;;;;;;;12.05;7.03;;;;;;;20.44;81.66;101129.31;3593738;39;20058;-51
2021/06/24 09:40:56;;;;;;;13.40;8.15;;;;;;;20.65;80.14;101130.88;3593583;39;20322;-48
2021/06/24 09:43:36;;;;;;;16.75;8.57;;;;;;;20.98;79.53;101134.91;3584338;39;20081;-51
2021/06/24 09:46:20;;;;;;;12.77;8.18;;;;;;;21.06;77.19;101135.69;3592962;39;20071;-52
2021/06/24 09:48:51;;;;;;;13.03;8.03;;;;;;;21.32;77.68;101136.31;3593147;39;20056;-50
2021/06/24 09:51:21;;;;;;;13.70;8.50;;;;;;;20.59;81.56;101137.00;3593552;39;20285;-49
2021/06/24 09:53:56;;;;;;;12.02;8.18;;;;;;;21.08;79.15;101136.56;3593414;39;20088;-50
2021/06/24 09:56:26;;;;;;;13.80;7.72;;;;;;;20.55;80.52;101132.69;3590260;39;20068;-51
2021/06/24 09:58:55;;;;;;;9.40;7.55;;;;;;;21.63;75.84;101137.66;3593047;39;20072;-49
2021/06/24 10:01:39;;;;;;;11.20;6.97;;;;;;;21.66;75.18;101142.84;3589566;39;20048;-52
2021/06/24 10:04:23;;;;;;;13.70;7.65;;;;;;;21.36;77.51;101142.34;3591240;39;20236;-55
2021/06/24 10:06:55;;;;;;;11.88;7.63;;;;;;;21.29;81.86;101127.63;3591232;39;20073;-51
2021/06/24 10:09:24;;;;;;;11.35;7.90;;;;;;;21.75;76.72;101137.50;3588401;39;20079;-52
2021/06/24 10:11:53;;;;;;;9.27;7.28;;;;;;;20.87;75.85;101129.81;3590687;39;20063;-48
2021/06/24 10:14:21;;;;;;;12.77;8.45;;;;;;;21.47;77.62;101134.41;3591368;39;20073;-57
2021/06/24 10:16:50;;;;;;;10.25;7.40;;;;;;;22.01;76.18;101127.59;3592457;39;20052;-51
2021/06/24 10:19:27;;;;;;;9.85;7.57;;;;;;;22.39;74.56;101131.38;3590700;39;20056;-52
2021/06/24 10:21:58;;;;;;;9.50;8.02;;;;;;;22.11;75.51;101117.88;3592776;39;20099;-50
2021/06/24 10:24:30;;;;;;;9.23;6.88;;;;;;;22.74;74.23;101107.31;3590190;39;20098;-51
2021/06/24 10:27:03;;;;;;;14.45;9.07;;;;;;;22.39;74.91;101105.28;3591467;39;20070;-51
2021/06/24 10:29:44;;;;;;;11.82;8.10;;;;;;;22.55;75.58;101098.91;3589091;39;20084;-49
2021/06/24 10:32:27;;;;;;;14.05;8.45;;;;;;;22.58;71.47;101103.22;3591679;39;20051;-48
2021/06/24 10:34:56;;;;;;;11.25;8.40;;;;;;;22.85;67.59;101100.13;3592480;39;20048;-52
2021/06/24 10:37:25;;;;;;;10.60;8.75;;;;;;;21.59;72.41;101103.84;3589886;39;20442;-53
2021/06/24 10:40:00;;;;;;;11.15;8.05;;;;;;;22.57;71.52;101104.13;3592859;39;20135;-55
2021/06/24 10:42:29;;;;;;;11.48;8.52;;;;;;;22.36;72.61;101100.97;3590358;39;20056;-50
2021/06/24 10:45:01;;;;;;;12.95;8.52;;;;;;;22.67;73.82;101102.22;3592754;39;20048;-54
2021/06/24 10:47:40;;;;;;;14.73;8.55;;;;;;;22.60;71.04;101099.72;3589555;39;20406;-52
2021/06/24 10:52:40;;;;;;;13.77;8.20;;;;;;;21.66;67.44;101093.31;3575965;40;20055;-54
2021/06/24 10:55:39;;;;;;;13.70;9.13;;;;;;;21.97;67.24;101091.16;3572296;40;20093;-56
2021/06/24 10:58:18;;;;;;;11.93;8.88;;;;;;;22.51;68.08;101091.16;3572994;40;20294;-56
2021/06/24 11:00:47;;;;;;;12.35;9.30;;;;;;;22.22;69.04;101091.66;3574344;40;20071;-57
2021/06/24 11:03:24;;;;;;;14.07;10.77;;;;;;;21.80;68.31;101088.78;3574865;40;20060;-57
2021/06/24 11:05:53;;;;;;;12.10;9.70;;;;;;;22.12;66.91;101080.50;3575239;40;20414;-58
2021/06/24 11:08:31;;;;;;;14.60;8.98;;;;;;;23.80;61.52;101079.06;3574054;40;20396;-57
2021/06/24 11:11:02;;;;;;;11.35;9.13;;;;;;;23.26;65.17;101080.19;3575107;40;20438;-60
2021/06/24 11:13:41;;;;;;;12.02;9.07;;;;;;;23.72;62.16;101081.88;3574608;40;20373;-55
2021/06/24 11:16:20;;;;;;;11.48;9.40;;;;;;;23.38;68.78;101081.69;3573467;40;20071;-56
2021/06/24 11:18:56;;;;;;;16.58;9.70;;;;;;;22.79;66.50;101078.50;3574969;40;20490;-53
2021/06/24 11:21:29;;;;;;;10.05;9.02;;;;;;;23.84;65.17;101085.94;3572826;40;22309;-56
2021/06/24 11:24:05;;;;;;;14.60;9.27;;;;;;;23.64;67.79;101089.00;3574635;40;20079;-56
2021/06/24 11:26:35;;;;;;;11.93;8.65;;;;;;;23.68;66.02;101076.75;3573947;40;20045;-57
2021/06/24 11:29:13;;;;;;;11.70;8.70;;;;;;;23.29;65.80;101079.25;3574569;40;20052;-57
2021/06/24 11:32:07;;;;;;;11.57;9.05;;;;;;;22.74;65.94;101072.47;3575224;40;20060;-59
2021/06/24 11:34:47;;;;;;;13.90;9.48;;;;;;;22.51;66.64;101073.78;3573370;40;20060;-55